sensor_id;sensor_type;location;lat;lon;timestamp;P1;durP1;ratioP1;P2;durP2;ratioP2
40595;SDS011;26304;48.794;9.820;2023-05-15T00:00:31;3.22;;;3.00;;
40595;SDS011;26304;48.794;9.820;2023-05-15T00:06:14;3.53;;;3.28;;
40595;SDS011;26304;48.794;9.820;2023-05-15T00:11:56;3.55;;;3.25;;
40595;SDS011;26304;48.794;9.820;2023-05-15T00:17:40;3.35;;;3.05;;
40595;SDS011;26304;48.794;9.820;2023-05-15T00:23:22;3.47;;;3.28;;
40595;SDS011;26304;48.794;9.820;2023-05-15T00:29:04;3.63;;;3.33;;
40595;SDS011;26304;48.794;9.820;2023-05-15T00:34:48;3.58;;;3.38;;
40595;SDS011;26304;48.794;9.820;2023-05-15T00:40:30;3.97;;;3.67;;
40595;SDS011;26304;48.794;9.820;2023-05-15T00:46:15;4.13;;;3.83;;
40595;SDS011;26304;48.794;9.820;2023-05-15T00:51:59;3.67;;;3.20;;
40595;SDS011;26304;48.794;9.820;2023-05-15T00:57:43;3.55;;;3.35;;
40595;SDS011;26304;48.794;9.820;2023-05-15T01:03:28;3.85;;;3.55;;
40595;SDS011;26304;48.794;9.820;2023-05-15T01:09:12;4.18;;;3.88;;
40595;SDS011;26304;48.794;9.820;2023-05-15T01:14:56;4.55;;;4.18;;
40595;SDS011;26304;48.794;9.820;2023-05-15T01:20:42;3.88;;;3.67;;
40595;SDS011;26304;48.794;9.820;2023-05-15T01:26:48;4.15;;;3.85;;
40595;SDS011;26304;48.794;9.820;2023-05-15T01:33:07;4.45;;;3.97;;
40595;SDS011;26304;48.794;9.820;2023-05-15T01:38:59;4.43;;;4.13;;
40595;SDS011;26304;48.794;9.820;2023-05-15T01:44:44;4.82;;;4.43;;
40595;SDS011;26304;48.794;9.820;2023-05-15T01:50:31;5.13;;;4.65;;
40595;SDS011;26304;48.794;9.820;2023-05-15T01:56:16;4.63;;;4.32;;
40595;SDS011;26304;48.794;9.820;2023-05-15T02:02:01;4.90;;;4.50;;
40595;SDS011;26304;48.794;9.820;2023-05-15T02:07:47;5.13;;;4.68;;
40595;SDS011;26304;48.794;9.820;2023-05-15T02:13:30;4.70;;;4.30;;
40595;SDS011;26304;48.794;9.820;2023-05-15T02:19:15;5.35;;;4.85;;
40595;SDS011;26304;48.794;9.820;2023-05-15T02:24:59;4.85;;;4.55;;
40595;SDS011;26304;48.794;9.820;2023-05-15T02:30:42;5.18;;;4.78;;
40595;SDS011;26304;48.794;9.820;2023-05-15T02:36:31;5.40;;;5.00;;
40595;SDS011;26304;48.794;9.820;2023-05-15T02:42:18;5.60;;;4.72;;
40595;SDS011;26304;48.794;9.820;2023-05-15T02:48:02;5.10;;;4.70;;
40595;SDS011;26304;48.794;9.820;2023-05-15T02:53:45;4.38;;;4.07;;
40595;SDS011;26304;48.794;9.820;2023-05-15T02:59:29;5.13;;;4.72;;
40595;SDS011;26304;48.794;9.820;2023-05-15T03:05:12;4.70;;;4.30;;
40595;SDS011;26304;48.794;9.820;2023-05-15T03:10:54;4.70;;;4.40;;
40595;SDS011;26304;48.794;9.820;2023-05-15T03:16:38;6.35;;;4.50;;
40595;SDS011;26304;48.794;9.820;2023-05-15T03:22:20;4.85;;;4.45;;
40595;SDS011;26304;48.794;9.820;2023-05-15T03:28:03;4.93;;;4.53;;
40595;SDS011;26304;48.794;9.820;2023-05-15T03:33:46;4.55;;;4.20;;
40595;SDS011;26304;48.794;9.820;2023-05-15T03:39:29;4.47;;;4.18;;
40595;SDS011;26304;48.794;9.820;2023-05-15T03:45:12;4.32;;;4.03;;
40595;SDS011;26304;48.794;9.820;2023-05-15T03:50:55;4.78;;;3.50;;
40595;SDS011;26304;48.794;9.820;2023-05-15T03:56:38;3.80;;;3.55;;
40595;SDS011;26304;48.794;9.820;2023-05-15T04:02:20;3.50;;;3.20;;
40595;SDS011;26304;48.794;9.820;2023-05-15T04:08:04;3.67;;;3.40;;
40595;SDS011;26304;48.794;9.820;2023-05-15T04:13:49;3.70;;;3.40;;
40595;SDS011;26304;48.794;9.820;2023-05-15T04:19:32;3.42;;;3.17;;
40595;SDS011;26304;48.794;9.820;2023-05-15T04:25:15;3.10;;;2.85;;
40595;SDS011;26304;48.794;9.820;2023-05-15T04:30:58;3.30;;;3.00;;
40595;SDS011;26304;48.794;9.820;2023-05-15T04:36:41;4.38;;;3.20;;
40595;SDS011;26304;48.794;9.820;2023-05-15T04:42:24;3.88;;;3.45;;
40595;SDS011;26304;48.794;9.820;2023-05-15T04:48:07;3.45;;;3.13;;
40595;SDS011;26304;48.794;9.820;2023-05-15T04:53:49;3.60;;;2.90;;
40595;SDS011;26304;48.794;9.820;2023-05-15T04:59:34;3.17;;;2.88;;
40595;SDS011;26304;48.794;9.820;2023-05-15T05:05:16;3.45;;;3.00;;
40595;SDS011;26304;48.794;9.820;2023-05-15T05:10:59;3.63;;;3.33;;
40595;SDS011;26304;48.794;9.820;2023-05-15T05:16:44;3.88;;;3.58;;
40595;SDS011;26304;48.794;9.820;2023-05-15T05:22:26;4.55;;;4.15;;
40595;SDS011;26304;48.794;9.820;2023-05-15T05:28:09;5.80;;;3.78;;
40595;SDS011;26304;48.794;9.820;2023-05-15T05:33:52;4.38;;;4.07;;
40595;SDS011;26304;48.794;9.820;2023-05-15T05:39:35;7.35;;;3.78;;
40595;SDS011;26304;48.794;9.820;2023-05-15T05:45:17;4.70;;;3.40;;
40595;SDS011;26304;48.794;9.820;2023-05-15T05:51:01;3.70;;;3.33;;
40595;SDS011;26304;48.794;9.820;2023-05-15T05:56:43;3.75;;;3.42;;
40595;SDS011;26304;48.794;9.820;2023-05-15T06:02:26;5.07;;;2.97;;
40595;SDS011;26304;48.794;9.820;2023-05-15T06:08:10;5.25;;;3.90;;
40595;SDS011;26304;48.794;9.820;2023-05-15T06:13:52;5.03;;;3.83;;
40595;SDS011;26304;48.794;9.820;2023-05-15T06:19:35;6.97;;;4.00;;
40595;SDS011;26304;48.794;9.820;2023-05-15T06:25:19;4.75;;;3.70;;
40595;SDS011;26304;48.794;9.820;2023-05-15T06:31:01;4.25;;;3.50;;
40595;SDS011;26304;48.794;9.820;2023-05-15T06:36:44;4.03;;;3.67;;
40595;SDS011;26304;48.794;9.820;2023-05-15T06:42:27;3.38;;;3.08;;
40595;SDS011;26304;48.794;9.820;2023-05-15T06:48:10;3.25;;;3.05;;
40595;SDS011;26304;48.794;9.820;2023-05-15T06:53:53;3.67;;;2.95;;
40595;SDS011;26304;48.794;9.820;2023-05-15T06:59:37;3.30;;;3.10;;
40595;SDS011;26304;48.794;9.820;2023-05-15T07:05:19;3.03;;;2.83;;
40595;SDS011;26304;48.794;9.820;2023-05-15T07:11:02;4.10;;;2.90;;
40595;SDS011;26304;48.794;9.820;2023-05-15T07:16:46;3.10;;;2.80;;
40595;SDS011;26304;48.794;9.820;2023-05-15T07:22:29;3.78;;;3.47;;
40595;SDS011;26304;48.794;9.820;2023-05-15T07:28:11;3.47;;;3.17;;
40595;SDS011;26304;48.794;9.820;2023-05-15T07:33:55;2.80;;;2.60;;
40595;SDS011;26304;48.794;9.820;2023-05-15T07:39:37;3.25;;;2.95;;
40595;SDS011;26304;48.794;9.820;2023-05-15T07:45:20;3.47;;;3.17;;
40595;SDS011;26304;48.794;9.820;2023-05-15T07:51:03;2.75;;;2.55;;
40595;SDS011;26304;48.794;9.820;2023-05-15T07:56:47;3.33;;;2.78;;
40595;SDS011;26304;48.794;9.820;2023-05-15T08:02:31;5.20;;;3.15;;
40595;SDS011;26304;48.794;9.820;2023-05-15T08:08:14;3.97;;;3.00;;
40595;SDS011;26304;48.794;9.820;2023-05-15T08:13:57;3.80;;;3.50;;
40595;SDS011;26304;48.794;9.820;2023-05-15T08:19:39;3.55;;;3.25;;
40595;SDS011;26304;48.794;9.820;2023-05-15T08:25:23;3.15;;;2.85;;
40595;SDS011;26304;48.794;9.820;2023-05-15T08:31:06;3.28;;;3.05;;
40595;SDS011;26304;48.794;9.820;2023-05-15T08:36:48;2.88;;;2.67;;
40595;SDS011;26304;48.794;9.820;2023-05-15T08:42:34;3.40;;;3.20;;
40595;SDS011;26304;48.794;9.820;2023-05-15T08:48:23;3.03;;;2.80;;
40595;SDS011;26304;48.794;9.820;2023-05-15T08:54:08;3.20;;;2.90;;
40595;SDS011;26304;48.794;9.820;2023-05-15T08:59:53;3.00;;;2.80;;
40595;SDS011;26304;48.794;9.820;2023-05-15T09:05:36;3.38;;;3.00;;
40595;SDS011;26304;48.794;9.820;2023-05-15T09:11:18;5.50;;;3.60;;
40595;SDS011;26304;48.794;9.820;2023-05-15T09:17:03;3.40;;;3.10;;
40595;SDS011;26304;48.794;9.820;2023-05-15T09:22:46;3.50;;;3.20;;
40595;SDS011;26304;48.794;9.820;2023-05-15T09:28:29;4.05;;;2.90;;
40595;SDS011;26304;48.794;9.820;2023-05-15T09:34:14;4.43;;;3.10;;
40595;SDS011;26304;48.794;9.820;2023-05-15T09:40:05;4.03;;;3.08;;
40595;SDS011;26304;48.794;9.820;2023-05-15T09:45:50;3.58;;;3.22;;
40595;SDS011;26304;48.794;9.820;2023-05-15T09:51:34;4.70;;;2.88;;
40595;SDS011;26304;48.794;9.820;2023-05-15T09:57:19;3.95;;;3.20;;
40595;SDS011;26304;48.794;9.820;2023-05-15T10:03:03;5.18;;;4.30;;
40595;SDS011;26304;48.794;9.820;2023-05-15T10:08:51;10.27;;;5.40;;
40595;SDS011;26304;48.794;9.820;2023-05-15T10:14:34;6.05;;;5.30;;
40595;SDS011;26304;48.794;9.820;2023-05-15T10:20:17;5.57;;;5.07;;
40595;SDS011;26304;48.794;9.820;2023-05-15T10:26:03;6.07;;;4.35;;
40595;SDS011;26304;48.794;9.820;2023-05-15T10:31:49;4.88;;;4.50;;
40595;SDS011;26304;48.794;9.820;2023-05-15T10:37:33;4.80;;;4.38;;
40595;SDS011;26304;48.794;9.820;2023-05-15T10:43:17;4.40;;;4.00;;
40595;SDS011;26304;48.794;9.820;2023-05-15T10:49:01;6.03;;;3.90;;
40595;SDS011;26304;48.794;9.820;2023-05-15T10:54:44;4.38;;;3.97;;
40595;SDS011;26304;48.794;9.820;2023-05-15T11:00:28;4.65;;;4.13;;
40595;SDS011;26304;48.794;9.820;2023-05-15T11:06:12;3.92;;;3.63;;
40595;SDS011;26304;48.794;9.820;2023-05-15T11:11:54;4.75;;;3.88;;
40595;SDS011;26304;48.794;9.820;2023-05-15T11:17:39;4.03;;;3.75;;
40595;SDS011;26304;48.794;9.820;2023-05-15T11:23:45;4.55;;;4.00;;
40595;SDS011;26304;48.794;9.820;2023-05-15T11:29:28;6.13;;;3.30;;
40595;SDS011;26304;48.794;9.820;2023-05-15T11:35:13;5.45;;;3.80;;
40595;SDS011;26304;48.794;9.820;2023-05-15T11:41:01;3.85;;;3.55;;
40595;SDS011;26304;48.794;9.820;2023-05-15T11:46:43;3.45;;;3.25;;
40595;SDS011;26304;48.794;9.820;2023-05-15T11:52:29;3.80;;;3.50;;
40595;SDS011;26304;48.794;9.820;2023-05-15T11:58:12;5.03;;;3.30;;
40595;SDS011;26304;48.794;9.820;2023-05-15T12:03:56;3.42;;;3.15;;
40595;SDS011;26304;48.794;9.820;2023-05-15T12:09:40;3.13;;;2.83;;
40595;SDS011;26304;48.794;9.820;2023-05-15T12:15:23;3.47;;;3.08;;
40595;SDS011;26304;48.794;9.820;2023-05-15T12:21:05;3.15;;;2.95;;
40595;SDS011;26304;48.794;9.820;2023-05-15T12:26:49;2.97;;;2.78;;
40595;SDS011;26304;48.794;9.820;2023-05-15T12:32:32;3.80;;;2.70;;
40595;SDS011;26304;48.794;9.820;2023-05-15T12:38:16;2.97;;;2.78;;
40595;SDS011;26304;48.794;9.820;2023-05-15T12:44:00;2.80;;;2.60;;
40595;SDS011;26304;48.794;9.820;2023-05-15T12:49:42;5.03;;;3.05;;
40595;SDS011;26304;48.794;9.820;2023-05-15T12:55:25;3.38;;;2.30;;
40595;SDS011;26304;48.794;9.820;2023-05-15T13:01:13;2.72;;;2.03;;
40595;SDS011;26304;48.794;9.820;2023-05-15T13:06:55;2.58;;;2.20;;
40595;SDS011;26304;48.794;9.820;2023-05-15T13:12:38;1.70;;;1.60;;
40595;SDS011;26304;48.794;9.820;2023-05-15T13:18:24;2.08;;;1.98;;
40595;SDS011;26304;48.794;9.820;2023-05-15T13:24:07;2.35;;;1.90;;
40595;SDS011;26304;48.794;9.820;2023-05-15T13:29:50;2.50;;;1.90;;
40595;SDS011;26304;48.794;9.820;2023-05-15T13:35:34;2.40;;;2.20;;
40595;SDS011;26304;48.794;9.820;2023-05-15T13:41:17;2.10;;;1.92;;
40595;SDS011;26304;48.794;9.820;2023-05-15T13:46:59;2.20;;;2.08;;
40595;SDS011;26304;48.794;9.820;2023-05-15T13:52:45;2.30;;;1.73;;
40595;SDS011;26304;48.794;9.820;2023-05-15T13:58:28;2.25;;;2.15;;
40595;SDS011;26304;48.794;9.820;2023-05-15T14:04:10;2.15;;;2.05;;
40595;SDS011;26304;48.794;9.820;2023-05-15T14:09:54;2.00;;;1.90;;
40595;SDS011;26304;48.794;9.820;2023-05-15T14:15:36;2.00;;;1.90;;
40595;SDS011;26304;48.794;9.820;2023-05-15T14:21:19;4.93;;;2.65;;
40595;SDS011;26304;48.794;9.820;2023-05-15T14:27:03;3.10;;;2.50;;
40595;SDS011;26304;48.794;9.820;2023-05-15T14:32:46;3.08;;;2.88;;
40595;SDS011;26304;48.794;9.820;2023-05-15T14:38:28;6.72;;;3.42;;
40595;SDS011;26304;48.794;9.820;2023-05-15T14:44:12;5.82;;;3.55;;
40595;SDS011;26304;48.794;9.820;2023-05-15T14:49:54;6.68;;;3.92;;
40595;SDS011;26304;48.794;9.820;2023-05-15T14:55:37;5.07;;;3.67;;
40595;SDS011;26304;48.794;9.820;2023-05-15T15:01:20;4.35;;;3.28;;
40595;SDS011;26304;48.794;9.820;2023-05-15T15:07:03;4.22;;;3.58;;
40595;SDS011;26304;48.794;9.820;2023-05-15T15:12:46;3.45;;;3.15;;
40595;SDS011;26304;48.794;9.820;2023-05-15T15:18:30;4.03;;;3.13;;
40595;SDS011;26304;48.794;9.820;2023-05-15T15:24:12;3.72;;;3.40;;
40595;SDS011;26304;48.794;9.820;2023-05-15T15:29:54;3.22;;;3.00;;
40595;SDS011;26304;48.794;9.820;2023-05-15T15:35:38;4.30;;;3.00;;
40595;SDS011;26304;48.794;9.820;2023-05-15T15:41:21;4.40;;;3.20;;
40595;SDS011;26304;48.794;9.820;2023-05-15T15:47:03;3.25;;;2.95;;
40595;SDS011;26304;48.794;9.820;2023-05-15T15:52:47;3.47;;;3.17;;
40595;SDS011;26304;48.794;9.820;2023-05-15T15:58:29;3.63;;;3.33;;
40595;SDS011;26304;48.794;9.820;2023-05-15T16:04:12;3.63;;;3.33;;
40595;SDS011;26304;48.794;9.820;2023-05-15T16:09:55;3.25;;;2.95;;
40595;SDS011;26304;48.794;9.820;2023-05-15T16:15:38;3.60;;;3.40;;
40595;SDS011;26304;48.794;9.820;2023-05-15T16:21:20;3.35;;;3.15;;
40595;SDS011;26304;48.794;9.820;2023-05-15T16:27:04;3.10;;;2.90;;
40595;SDS011;26304;48.794;9.820;2023-05-15T16:32:47;3.00;;;2.88;;
40595;SDS011;26304;48.794;9.820;2023-05-15T16:38:29;3.28;;;3.08;;
40595;SDS011;26304;48.794;9.820;2023-05-15T16:44:13;3.88;;;3.13;;
40595;SDS011;26304;48.794;9.820;2023-05-15T16:49:56;3.60;;;3.33;;
40595;SDS011;26304;48.794;9.820;2023-05-15T16:55:38;3.30;;;3.10;;
40595;SDS011;26304;48.794;9.820;2023-05-15T17:01:22;3.33;;;3.03;;
40595;SDS011;26304;48.794;9.820;2023-05-15T17:07:04;3.33;;;3.13;;
40595;SDS011;26304;48.794;9.820;2023-05-15T17:12:47;3.17;;;2.97;;
40595;SDS011;26304;48.794;9.820;2023-05-15T17:18:30;3.40;;;3.10;;
40595;SDS011;26304;48.794;9.820;2023-05-15T17:24:13;2.60;;;2.40;;
40595;SDS011;26304;48.794;9.820;2023-05-15T17:29:55;2.95;;;2.78;;
40595;SDS011;26304;48.794;9.820;2023-05-15T17:35:39;3.85;;;3.40;;
40595;SDS011;26304;48.794;9.820;2023-05-15T17:41:21;3.70;;;3.40;;
40595;SDS011;26304;48.794;9.820;2023-05-15T17:47:04;4.43;;;3.42;;
40595;SDS011;26304;48.794;9.820;2023-05-15T17:52:48;4.25;;;3.47;;
40595;SDS011;26304;48.794;9.820;2023-05-15T17:58:30;3.78;;;3.38;;
40595;SDS011;26304;48.794;9.820;2023-05-15T18:04:12;5.03;;;3.45;;
40595;SDS011;26304;48.794;9.820;2023-05-15T18:09:56;3.70;;;3.35;;
40595;SDS011;26304;48.794;9.820;2023-05-15T18:15:39;4.03;;;3.47;;
40595;SDS011;26304;48.794;9.820;2023-05-15T18:21:21;3.65;;;3.35;;
40595;SDS011;26304;48.794;9.820;2023-05-15T18:27:05;7.15;;;3.30;;
40595;SDS011;26304;48.794;9.820;2023-05-15T18:32:48;8.50;;;5.03;;
40595;SDS011;26304;48.794;9.820;2023-05-15T18:38:30;12.55;;;6.10;;
40595;SDS011;26304;48.794;9.820;2023-05-15T18:44:14;8.10;;;5.60;;
40595;SDS011;26304;48.794;9.820;2023-05-15T18:49:56;8.13;;;5.28;;
40595;SDS011;26304;48.794;9.820;2023-05-15T18:55:39;5.28;;;4.65;;
40595;SDS011;26304;48.794;9.820;2023-05-15T19:01:22;5.72;;;4.97;;
40595;SDS011;26304;48.794;9.820;2023-05-15T19:07:05;5.45;;;4.95;;
40595;SDS011;26304;48.794;9.820;2023-05-15T19:12:47;5.68;;;4.45;;
40595;SDS011;26304;48.794;9.820;2023-05-15T19:18:31;4.88;;;4.43;;
40595;SDS011;26304;48.794;9.820;2023-05-15T19:24:14;12.77;;;4.45;;
40595;SDS011;26304;48.794;9.820;2023-05-15T19:29:56;3.95;;;3.35;;
40595;SDS011;26304;48.794;9.820;2023-05-15T19:35:40;4.00;;;3.70;;
40595;SDS011;26304;48.794;9.820;2023-05-15T19:41:24;4.80;;;4.35;;
40595;SDS011;26304;48.794;9.820;2023-05-15T19:47:07;5.10;;;4.32;;
40595;SDS011;26304;48.794;9.820;2023-05-15T19:52:51;4.43;;;4.03;;
40595;SDS011;26304;48.794;9.820;2023-05-15T19:58:35;4.13;;;3.83;;
40595;SDS011;26304;48.794;9.820;2023-05-15T20:04:17;4.90;;;3.90;;
40595;SDS011;26304;48.794;9.820;2023-05-15T20:10:02;4.35;;;3.78;;
40595;SDS011;26304;48.794;9.820;2023-05-15T20:15:45;3.70;;;3.40;;
40595;SDS011;26304;48.794;9.820;2023-05-15T20:21:28;4.00;;;3.33;;
40595;SDS011;26304;48.794;9.820;2023-05-15T20:27:13;3.50;;;3.28;;
40595;SDS011;26304;48.794;9.820;2023-05-15T20:32:56;3.63;;;3.28;;
40595;SDS011;26304;48.794;9.820;2023-05-15T20:38:38;4.10;;;3.80;;
40595;SDS011;26304;48.794;9.820;2023-05-15T20:44:22;4.18;;;3.88;;
40595;SDS011;26304;48.794;9.820;2023-05-15T20:50:05;4.20;;;3.88;;
40595;SDS011;26304;48.794;9.820;2023-05-15T20:55:48;4.18;;;3.78;;
40595;SDS011;26304;48.794;9.820;2023-05-15T21:01:34;5.05;;;4.65;;
40595;SDS011;26304;48.794;9.820;2023-05-15T21:07:17;4.50;;;4.20;;
40595;SDS011;26304;48.794;9.820;2023-05-15T21:12:59;4.55;;;4.20;;
40595;SDS011;26304;48.794;9.820;2023-05-15T21:18:43;5.22;;;4.80;;
40595;SDS011;26304;48.794;9.820;2023-05-15T21:24:25;4.18;;;3.88;;
40595;SDS011;26304;48.794;9.820;2023-05-15T21:30:08;4.60;;;4.30;;
40595;SDS011;26304;48.794;9.820;2023-05-15T21:35:53;4.50;;;4.10;;
40595;SDS011;26304;48.794;9.820;2023-05-15T21:41:35;4.40;;;4.10;;
40595;SDS011;26304;48.794;9.820;2023-05-15T21:47:17;5.07;;;4.68;;
40595;SDS011;26304;48.794;9.820;2023-05-15T21:53:01;5.07;;;4.68;;
40595;SDS011;26304;48.794;9.820;2023-05-15T21:58:44;4.40;;;4.10;;
40595;SDS011;26304;48.794;9.820;2023-05-15T22:04:26;3.88;;;3.47;;
40595;SDS011;26304;48.794;9.820;2023-05-15T22:10:11;4.28;;;3.97;;
40595;SDS011;26304;48.794;9.820;2023-05-15T22:15:57;4.22;;;3.92;;
40595;SDS011;26304;48.794;9.820;2023-05-15T22:21:39;4.30;;;4.00;;
40595;SDS011;26304;48.794;9.820;2023-05-15T22:27:23;3.78;;;3.50;;
40595;SDS011;26304;48.794;9.820;2023-05-15T22:33:07;4.28;;;3.97;;
40595;SDS011;26304;48.794;9.820;2023-05-15T22:38:50;4.55;;;4.15;;
40595;SDS011;26304;48.794;9.820;2023-05-15T22:44:33;4.15;;;3.80;;
40595;SDS011;26304;48.794;9.820;2023-05-15T22:50:16;4.00;;;3.70;;
40595;SDS011;26304;48.794;9.820;2023-05-15T22:55:58;4.32;;;3.75;;
40595;SDS011;26304;48.794;9.820;2023-05-15T23:01:42;4.20;;;3.80;;
40595;SDS011;26304;48.794;9.820;2023-05-15T23:07:25;4.13;;;3.72;;
40595;SDS011;26304;48.794;9.820;2023-05-15T23:13:07;4.32;;;4.03;;
40595;SDS011;26304;48.794;9.820;2023-05-15T23:18:51;4.18;;;3.88;;
40595;SDS011;26304;48.794;9.820;2023-05-15T23:24:33;4.13;;;3.92;;
40595;SDS011;26304;48.794;9.820;2023-05-15T23:30:16;4.35;;;4.03;;
40595;SDS011;26304;48.794;9.820;2023-05-15T23:36:00;4.05;;;3.80;;
40595;SDS011;26304;48.794;9.820;2023-05-15T23:41:42;4.40;;;4.10;;
40595;SDS011;26304;48.794;9.820;2023-05-15T23:47:24;4.40;;;4.10;;
40595;SDS011;26304;48.794;9.820;2023-05-15T23:53:08;4.07;;;3.78;;
40595;SDS011;26304;48.794;9.820;2023-05-15T23:58:51;4.45;;;4.10;;
